Terminal Aerodrome Forecast
Issued by NWS

Home | Current Version | Previous Version | Text Only | Print | Product List | Glossary On
Versions: 1 2 3 4 5 6 7 8 9 10 11 12 13 14 15 16 17
759
FTUS45 KFGZ 310537
TAFGCN
TAF
KGCN 310537Z 3106/0106 VRB03KT P6SM SCT110 BKN200
      TEMPO 3107/3109 VRB10G15KT 6SM -TSRA BKN080CB
     FM311800 25009KT P6SM SCT090 BKN110
      TEMPO 3120/3124 VRB10G20KT -TSRA SCT045 BKN090CB=

USA.gov is the U.S. government's official web portal to all federal, state and local government web resources and services.